sensor_id;sensor_type;location;lat;lon;timestamp;P1;durP1;ratioP1;P2;durP2;ratioP2
54937;SDS011;52756;52.826;6.214;2024-03-22T00:01:53;31.67;;;24.42;;
54937;SDS011;52756;52.826;6.214;2024-03-22T00:04:20;35.22;;;25.95;;
54937;SDS011;52756;52.826;6.214;2024-03-22T00:06:46;36.47;;;24.52;;
54937;SDS011;52756;52.826;6.214;2024-03-22T00:09:13;34.60;;;26.08;;
54937;SDS011;52756;52.826;6.214;2024-03-22T00:11:39;28.33;;;23.52;;
54937;SDS011;52756;52.826;6.214;2024-03-22T00:14:06;31.05;;;24.92;;
54937;SDS011;52756;52.826;6.214;2024-03-22T00:16:32;32.75;;;26.45;;
54937;SDS011;52756;52.826;6.214;2024-03-22T00:18:58;36.05;;;28.48;;
54937;SDS011;52756;52.826;6.214;2024-03-22T00:21:23;34.17;;;27.75;;
54937;SDS011;52756;52.826;6.214;2024-03-22T00:23:49;33.35;;;26.50;;
54937;SDS011;52756;52.826;6.214;2024-03-22T00:26:15;33.72;;;25.67;;
54937;SDS011;52756;52.826;6.214;2024-03-22T00:28:41;36.20;;;28.48;;
54937;SDS011;52756;52.826;6.214;2024-03-22T00:31:06;38.67;;;29.42;;
54937;SDS011;52756;52.826;6.214;2024-03-22T00:33:33;37.30;;;28.65;;
54937;SDS011;52756;52.826;6.214;2024-03-22T00:35:58;36.85;;;28.90;;
54937;SDS011;52756;52.826;6.214;2024-03-22T00:38:24;36.15;;;29.40;;
54937;SDS011;52756;52.826;6.214;2024-03-22T00:40:49;34.38;;;27.90;;
54937;SDS011;52756;52.826;6.214;2024-03-22T00:43:15;38.22;;;29.35;;
54937;SDS011;52756;52.826;6.214;2024-03-22T00:45:41;39.08;;;30.65;;
54937;SDS011;52756;52.826;6.214;2024-03-22T00:48:06;39.78;;;31.63;;
54937;SDS011;52756;52.826;6.214;2024-03-22T00:50:32;39.72;;;30.27;;
54937;SDS011;52756;52.826;6.214;2024-03-22T00:52:58;40.58;;;31.80;;
54937;SDS011;52756;52.826;6.214;2024-03-22T00:55:24;41.47;;;30.90;;
54937;SDS011;52756;52.826;6.214;2024-03-22T00:57:50;41.22;;;32.08;;
54937;SDS011;52756;52.826;6.214;2024-03-22T01:00:16;39.40;;;30.08;;
54937;SDS011;52756;52.826;6.214;2024-03-22T01:02:42;39.75;;;30.98;;
54937;SDS011;52756;52.826;6.214;2024-03-22T01:05:08;43.08;;;32.90;;
54937;SDS011;52756;52.826;6.214;2024-03-22T01:07:33;44.10;;;33.00;;
54937;SDS011;52756;52.826;6.214;2024-03-22T01:10:00;43.67;;;33.08;;
54937;SDS011;52756;52.826;6.214;2024-03-22T01:12:25;43.13;;;31.88;;
54937;SDS011;52756;52.826;6.214;2024-03-22T01:14:51;42.70;;;32.47;;
54937;SDS011;52756;52.826;6.214;2024-03-22T01:17:16;39.83;;;30.17;;
54937;SDS011;52756;52.826;6.214;2024-03-22T01:19:42;45.60;;;34.83;;
54937;SDS011;52756;52.826;6.214;2024-03-22T01:22:08;42.03;;;30.73;;
54937;SDS011;52756;52.826;6.214;2024-03-22T01:24:33;44.90;;;32.92;;
54937;SDS011;52756;52.826;6.214;2024-03-22T01:26:59;43.55;;;33.20;;
54937;SDS011;52756;52.826;6.214;2024-03-22T01:29:24;39.25;;;30.40;;
54937;SDS011;52756;52.826;6.214;2024-03-22T01:31:50;44.40;;;33.38;;
54937;SDS011;52756;52.826;6.214;2024-03-22T01:34:16;42.80;;;32.45;;
54937;SDS011;52756;52.826;6.214;2024-03-22T01:36:41;44.42;;;33.50;;
54937;SDS011;52756;52.826;6.214;2024-03-22T01:39:07;41.03;;;31.02;;
54937;SDS011;52756;52.826;6.214;2024-03-22T01:41:32;43.40;;;33.42;;
54937;SDS011;52756;52.826;6.214;2024-03-22T01:51:20;48.05;;;34.33;;
54937;SDS011;52756;52.826;6.214;2024-03-22T01:53:46;52.05;;;34.95;;
54937;SDS011;52756;52.826;6.214;2024-03-22T01:56:12;46.67;;;34.97;;
54937;SDS011;52756;52.826;6.214;2024-03-22T01:58:39;45.05;;;32.47;;
54937;SDS011;52756;52.826;6.214;2024-03-22T02:01:05;43.42;;;33.08;;
54937;SDS011;52756;52.826;6.214;2024-03-22T02:03:31;43.38;;;32.80;;
54937;SDS011;52756;52.826;6.214;2024-03-22T02:05:56;45.00;;;33.63;;
54937;SDS011;52756;52.826;6.214;2024-03-22T02:08:22;49.08;;;34.53;;
54937;SDS011;52756;52.826;6.214;2024-03-22T02:10:48;48.00;;;34.35;;
54937;SDS011;52756;52.826;6.214;2024-03-22T02:13:16;46.17;;;35.00;;
54937;SDS011;52756;52.826;6.214;2024-03-22T02:15:42;43.55;;;32.92;;
54937;SDS011;52756;52.826;6.214;2024-03-22T02:18:07;45.90;;;34.05;;
54937;SDS011;52756;52.826;6.214;2024-03-22T02:20:33;46.55;;;33.97;;
54937;SDS011;52756;52.826;6.214;2024-03-22T02:22:59;44.35;;;34.20;;
54937;SDS011;52756;52.826;6.214;2024-03-22T02:25:24;50.17;;;35.88;;
54937;SDS011;52756;52.826;6.214;2024-03-22T02:27:50;48.13;;;35.00;;
54937;SDS011;52756;52.826;6.214;2024-03-22T02:30:16;55.40;;;38.55;;
54937;SDS011;52756;52.826;6.214;2024-03-22T02:32:42;48.97;;;33.92;;
54937;SDS011;52756;52.826;6.214;2024-03-22T02:35:08;47.25;;;35.10;;
54937;SDS011;52756;52.826;6.214;2024-03-22T02:37:34;47.90;;;34.47;;
54937;SDS011;52756;52.826;6.214;2024-03-22T02:39:59;48.75;;;35.30;;
54937;SDS011;52756;52.826;6.214;2024-03-22T02:42:25;45.65;;;34.28;;
54937;SDS011;52756;52.826;6.214;2024-03-22T02:44:51;47.05;;;34.38;;
54937;SDS011;52756;52.826;6.214;2024-03-22T02:47:17;51.80;;;35.67;;
54937;SDS011;52756;52.826;6.214;2024-03-22T02:49:42;48.03;;;36.33;;
54937;SDS011;52756;52.826;6.214;2024-03-22T02:52:08;47.67;;;35.10;;
54937;SDS011;52756;52.826;6.214;2024-03-22T02:54:33;48.83;;;34.83;;
54937;SDS011;52756;52.826;6.214;2024-03-22T02:56:59;44.95;;;33.13;;
54937;SDS011;52756;52.826;6.214;2024-03-22T02:59:26;48.60;;;34.55;;
54937;SDS011;52756;52.826;6.214;2024-03-22T03:01:53;51.00;;;36.35;;
54937;SDS011;52756;52.826;6.214;2024-03-22T03:04:18;50.35;;;36.63;;
54937;SDS011;52756;52.826;6.214;2024-03-22T03:06:44;50.80;;;34.72;;
54937;SDS011;52756;52.826;6.214;2024-03-22T03:09:12;47.17;;;32.83;;
54937;SDS011;52756;52.826;6.214;2024-03-22T03:11:39;53.97;;;36.97;;
54937;SDS011;52756;52.826;6.214;2024-03-22T03:14:05;50.25;;;35.92;;
54937;SDS011;52756;52.826;6.214;2024-03-22T03:16:30;56.20;;;37.53;;
54937;SDS011;52756;52.826;6.214;2024-03-22T03:18:56;50.97;;;35.35;;
54937;SDS011;52756;52.826;6.214;2024-03-22T03:21:22;54.22;;;36.13;;
54937;SDS011;52756;52.826;6.214;2024-03-22T03:23:47;53.58;;;37.60;;
54937;SDS011;52756;52.826;6.214;2024-03-22T03:26:13;52.05;;;35.10;;
54937;SDS011;52756;52.826;6.214;2024-03-22T03:28:38;56.45;;;38.55;;
54937;SDS011;52756;52.826;6.214;2024-03-22T03:31:04;54.08;;;35.35;;
54937;SDS011;52756;52.826;6.214;2024-03-22T03:33:30;52.90;;;36.17;;
54937;SDS011;52756;52.826;6.214;2024-03-22T03:35:55;54.33;;;35.80;;
54937;SDS011;52756;52.826;6.214;2024-03-22T03:38:21;52.45;;;34.60;;
54937;SDS011;52756;52.826;6.214;2024-03-22T03:40:48;50.53;;;34.35;;
54937;SDS011;52756;52.826;6.214;2024-03-22T03:43:14;53.03;;;34.63;;
54937;SDS011;52756;52.826;6.214;2024-03-22T03:45:39;52.05;;;34.70;;
54937;SDS011;52756;52.826;6.214;2024-03-22T03:48:05;55.58;;;37.63;;
54937;SDS011;52756;52.826;6.214;2024-03-22T03:50:31;55.67;;;35.85;;
54937;SDS011;52756;52.826;6.214;2024-03-22T03:52:57;49.35;;;34.83;;
54937;SDS011;52756;52.826;6.214;2024-03-22T03:55:22;51.10;;;33.80;;
54937;SDS011;52756;52.826;6.214;2024-03-22T03:57:51;52.72;;;35.97;;
54937;SDS011;52756;52.826;6.214;2024-03-22T04:00:18;54.25;;;36.58;;
54937;SDS011;52756;52.826;6.214;2024-03-22T04:02:44;59.72;;;36.58;;
54937;SDS011;52756;52.826;6.214;2024-03-22T04:05:10;54.17;;;35.15;;
54937;SDS011;52756;52.826;6.214;2024-03-22T04:07:36;54.90;;;33.42;;
54937;SDS011;52756;52.826;6.214;2024-03-22T04:10:01;56.45;;;33.63;;
54937;SDS011;52756;52.826;6.214;2024-03-22T04:12:27;47.95;;;31.75;;
54937;SDS011;52756;52.826;6.214;2024-03-22T04:14:54;52.90;;;34.72;;
54937;SDS011;52756;52.826;6.214;2024-03-22T04:17:19;56.28;;;35.00;;
54937;SDS011;52756;52.826;6.214;2024-03-22T04:19:45;54.88;;;33.97;;
54937;SDS011;52756;52.826;6.214;2024-03-22T04:22:10;55.63;;;33.90;;
54937;SDS011;52756;52.826;6.214;2024-03-22T04:24:36;49.00;;;32.72;;
54937;SDS011;52756;52.826;6.214;2024-03-22T04:27:01;53.47;;;33.88;;
54937;SDS011;52756;52.826;6.214;2024-03-22T04:29:27;54.47;;;33.10;;
54937;SDS011;52756;52.826;6.214;2024-03-22T04:31:53;53.97;;;33.95;;
54937;SDS011;52756;52.826;6.214;2024-03-22T04:34:18;51.25;;;33.45;;
54937;SDS011;52756;52.826;6.214;2024-03-22T04:36:44;50.33;;;32.53;;
54937;SDS011;52756;52.826;6.214;2024-03-22T04:39:09;53.80;;;33.70;;
54937;SDS011;52756;52.826;6.214;2024-03-22T04:41:37;56.22;;;34.95;;
54937;SDS011;52756;52.826;6.214;2024-03-22T04:44:03;52.35;;;33.13;;
54937;SDS011;52756;52.826;6.214;2024-03-22T04:46:28;52.33;;;32.13;;
54937;SDS011;52756;52.826;6.214;2024-03-22T04:48:54;53.30;;;32.03;;
54937;SDS011;52756;52.826;6.214;2024-03-22T04:51:20;46.65;;;29.38;;
54937;SDS011;52756;52.826;6.214;2024-03-22T04:53:45;51.38;;;31.67;;
54937;SDS011;52756;52.826;6.214;2024-03-22T04:56:11;53.15;;;31.52;;
54937;SDS011;52756;52.826;6.214;2024-03-22T04:58:36;50.17;;;33.05;;
54937;SDS011;52756;52.826;6.214;2024-03-22T05:01:02;50.75;;;31.58;;
54937;SDS011;52756;52.826;6.214;2024-03-22T05:03:28;47.63;;;30.00;;
54937;SDS011;52756;52.826;6.214;2024-03-22T05:05:53;48.70;;;29.67;;
54937;SDS011;52756;52.826;6.214;2024-03-22T05:08:19;54.10;;;32.17;;
54937;SDS011;52756;52.826;6.214;2024-03-22T05:10:45;51.30;;;30.58;;
54937;SDS011;52756;52.826;6.214;2024-03-22T05:13:11;43.88;;;27.27;;
54937;SDS011;52756;52.826;6.214;2024-03-22T05:15:36;46.65;;;29.85;;
54937;SDS011;52756;52.826;6.214;2024-03-22T05:18:02;42.10;;;28.42;;
54937;SDS011;52756;52.826;6.214;2024-03-22T05:20:28;48.05;;;31.55;;
54937;SDS011;52756;52.826;6.214;2024-03-22T05:22:54;45.47;;;29.13;;
54937;SDS011;52756;52.826;6.214;2024-03-22T05:25:20;47.72;;;29.48;;
54937;SDS011;52756;52.826;6.214;2024-03-22T05:27:46;44.13;;;28.30;;
54937;SDS011;52756;52.826;6.214;2024-03-22T05:30:12;45.58;;;27.90;;
54937;SDS011;52756;52.826;6.214;2024-03-22T05:32:38;44.72;;;28.15;;
54937;SDS011;52756;52.826;6.214;2024-03-22T05:35:05;44.88;;;29.15;;
54937;SDS011;52756;52.826;6.214;2024-03-22T05:37:31;43.20;;;27.80;;
54937;SDS011;52756;52.826;6.214;2024-03-22T05:39:56;43.92;;;28.42;;
54937;SDS011;52756;52.826;6.214;2024-03-22T05:42:22;47.53;;;29.65;;
54937;SDS011;52756;52.826;6.214;2024-03-22T05:44:48;44.42;;;28.15;;
54937;SDS011;52756;52.826;6.214;2024-03-22T05:47:13;46.00;;;29.35;;
54937;SDS011;52756;52.826;6.214;2024-03-22T05:49:39;40.70;;;26.85;;
54937;SDS011;52756;52.826;6.214;2024-03-22T05:52:05;44.90;;;27.65;;
54937;SDS011;52756;52.826;6.214;2024-03-22T05:54:30;42.80;;;26.77;;
54937;SDS011;52756;52.826;6.214;2024-03-22T05:56:56;40.65;;;27.48;;
54937;SDS011;52756;52.826;6.214;2024-03-22T05:59:22;41.92;;;26.67;;
54937;SDS011;52756;52.826;6.214;2024-03-22T06:01:47;41.63;;;27.30;;
54937;SDS011;52756;52.826;6.214;2024-03-22T06:04:13;41.63;;;25.45;;
54937;SDS011;52756;52.826;6.214;2024-03-22T06:06:38;39.92;;;25.48;;
54937;SDS011;52756;52.826;6.214;2024-03-22T06:09:04;40.80;;;26.55;;
54937;SDS011;52756;52.826;6.214;2024-03-22T06:11:34;38.00;;;24.92;;
54937;SDS011;52756;52.826;6.214;2024-03-22T06:14:00;41.92;;;25.08;;
54937;SDS011;52756;52.826;6.214;2024-03-22T06:16:26;42.10;;;25.63;;
54937;SDS011;52756;52.826;6.214;2024-03-22T06:18:51;41.72;;;25.73;;
54937;SDS011;52756;52.826;6.214;2024-03-22T06:21:17;41.03;;;23.75;;
54937;SDS011;52756;52.826;6.214;2024-03-22T06:23:51;38.17;;;23.70;;
54937;SDS011;52756;52.826;6.214;2024-03-22T06:26:17;37.97;;;23.15;;
54937;SDS011;52756;52.826;6.214;2024-03-22T06:28:43;33.83;;;23.05;;
54937;SDS011;52756;52.826;6.214;2024-03-22T06:31:08;35.13;;;23.17;;
54937;SDS011;52756;52.826;6.214;2024-03-22T06:33:34;32.63;;;22.42;;
54937;SDS011;52756;52.826;6.214;2024-03-22T06:36:00;35.28;;;22.58;;
54937;SDS011;52756;52.826;6.214;2024-03-22T06:38:26;35.92;;;21.88;;
54937;SDS011;52756;52.826;6.214;2024-03-22T06:40:51;38.40;;;20.63;;
54937;SDS011;52756;52.826;6.214;2024-03-22T06:43:17;35.65;;;20.40;;
54937;SDS011;52756;52.826;6.214;2024-03-22T06:45:43;32.90;;;20.50;;
54937;SDS011;52756;52.826;6.214;2024-03-22T06:48:08;31.88;;;20.02;;
54937;SDS011;52756;52.826;6.214;2024-03-22T06:50:34;31.98;;;19.98;;
54937;SDS011;52756;52.826;6.214;2024-03-22T06:52:59;31.98;;;18.10;;
54937;SDS011;52756;52.826;6.214;2024-03-22T06:55:25;34.05;;;20.25;;
54937;SDS011;52756;52.826;6.214;2024-03-22T06:57:50;33.22;;;20.08;;
54937;SDS011;52756;52.826;6.214;2024-03-22T07:00:17;28.02;;;18.23;;
54937;SDS011;52756;52.826;6.214;2024-03-22T07:02:43;31.13;;;18.00;;
54937;SDS011;52756;52.826;6.214;2024-03-22T07:05:09;32.63;;;17.55;;
54937;SDS011;52756;52.826;6.214;2024-03-22T07:07:36;30.70;;;17.60;;
54937;SDS011;52756;52.826;6.214;2024-03-22T07:10:02;34.05;;;18.92;;
54937;SDS011;52756;52.826;6.214;2024-03-22T07:12:30;28.20;;;16.38;;
54937;SDS011;52756;52.826;6.214;2024-03-22T07:14:57;26.13;;;16.63;;
54937;SDS011;52756;52.826;6.214;2024-03-22T07:17:24;30.45;;;17.00;;
54937;SDS011;52756;52.826;6.214;2024-03-22T07:19:50;30.20;;;15.77;;
54937;SDS011;52756;52.826;6.214;2024-03-22T07:22:16;28.55;;;15.57;;
54937;SDS011;52756;52.826;6.214;2024-03-22T07:24:42;26.15;;;14.90;;
54937;SDS011;52756;52.826;6.214;2024-03-22T07:27:08;30.98;;;16.45;;
54937;SDS011;52756;52.826;6.214;2024-03-22T07:29:33;27.27;;;14.15;;
54937;SDS011;52756;52.826;6.214;2024-03-22T07:31:59;27.23;;;15.52;;
54937;SDS011;52756;52.826;6.214;2024-03-22T07:34:25;25.30;;;13.40;;
54937;SDS011;52756;52.826;6.214;2024-03-22T07:36:50;22.90;;;13.38;;
54937;SDS011;52756;52.826;6.214;2024-03-22T07:39:16;31.15;;;14.20;;
54937;SDS011;52756;52.826;6.214;2024-03-22T07:41:41;27.55;;;14.27;;
54937;SDS011;52756;52.826;6.214;2024-03-22T07:44:07;23.30;;;13.05;;
54937;SDS011;52756;52.826;6.214;2024-03-22T07:46:32;28.83;;;13.35;;
54937;SDS011;52756;52.826;6.214;2024-03-22T07:48:58;25.08;;;13.75;;
54937;SDS011;52756;52.826;6.214;2024-03-22T07:51:24;24.42;;;12.65;;
54937;SDS011;52756;52.826;6.214;2024-03-22T07:53:50;23.17;;;13.00;;
54937;SDS011;52756;52.826;6.214;2024-03-22T07:56:17;25.92;;;13.48;;
54937;SDS011;52756;52.826;6.214;2024-03-22T07:58:42;25.55;;;13.25;;
54937;SDS011;52756;52.826;6.214;2024-03-22T08:01:08;28.77;;;13.23;;
54937;SDS011;52756;52.826;6.214;2024-03-22T08:03:34;30.35;;;13.38;;
54937;SDS011;52756;52.826;6.214;2024-03-22T08:05:59;32.30;;;14.98;;
54937;SDS011;52756;52.826;6.214;2024-03-22T08:08:25;23.98;;;13.10;;
54937;SDS011;52756;52.826;6.214;2024-03-22T08:10:50;32.00;;;14.10;;
54937;SDS011;52756;52.826;6.214;2024-03-22T08:13:16;22.58;;;13.20;;
54937;SDS011;52756;52.826;6.214;2024-03-22T08:15:42;26.35;;;14.15;;
54937;SDS011;52756;52.826;6.214;2024-03-22T08:18:10;25.75;;;14.48;;
54937;SDS011;52756;52.826;6.214;2024-03-22T08:20:36;24.52;;;14.43;;
54937;SDS011;52756;52.826;6.214;2024-03-22T08:23:04;27.30;;;15.07;;
54937;SDS011;52756;52.826;6.214;2024-03-22T08:25:30;33.25;;;17.02;;
54937;SDS011;52756;52.826;6.214;2024-03-22T08:27:55;29.20;;;16.65;;
54937;SDS011;52756;52.826;6.214;2024-03-22T08:30:22;30.00;;;16.13;;
54937;SDS011;52756;52.826;6.214;2024-03-22T08:32:47;28.35;;;17.00;;
54937;SDS011;52756;52.826;6.214;2024-03-22T08:35:13;30.63;;;16.17;;
54937;SDS011;52756;52.826;6.214;2024-03-22T08:37:39;31.30;;;16.92;;
54937;SDS011;52756;52.826;6.214;2024-03-22T08:40:05;28.30;;;17.70;;
54937;SDS011;52756;52.826;6.214;2024-03-22T08:42:31;28.48;;;15.80;;
54937;SDS011;52756;52.826;6.214;2024-03-22T08:44:57;25.58;;;16.33;;
54937;SDS011;52756;52.826;6.214;2024-03-22T08:47:23;26.88;;;14.32;;
54937;SDS011;52756;52.826;6.214;2024-03-22T08:49:48;29.33;;;15.02;;
54937;SDS011;52756;52.826;6.214;2024-03-22T08:52:14;28.27;;;13.98;;
54937;SDS011;52756;52.826;6.214;2024-03-22T08:54:40;25.75;;;13.55;;
54937;SDS011;52756;52.826;6.214;2024-03-22T08:57:05;20.02;;;13.43;;
54937;SDS011;52756;52.826;6.214;2024-03-22T08:59:31;29.20;;;13.05;;
54937;SDS011;52756;52.826;6.214;2024-03-22T09:01:57;22.60;;;14.73;;
54937;SDS011;52756;52.826;6.214;2024-03-22T09:04:24;25.63;;;14.23;;
54937;SDS011;52756;52.826;6.214;2024-03-22T09:06:50;28.58;;;14.98;;
54937;SDS011;52756;52.826;6.214;2024-03-22T09:09:15;28.23;;;15.98;;
54937;SDS011;52756;52.826;6.214;2024-03-22T09:11:42;23.08;;;14.35;;
54937;SDS011;52756;52.826;6.214;2024-03-22T09:14:07;22.27;;;13.50;;
54937;SDS011;52756;52.826;6.214;2024-03-22T09:16:33;23.63;;;13.38;;
54937;SDS011;52756;52.826;6.214;2024-03-22T09:18:59;24.30;;;14.60;;
54937;SDS011;52756;52.826;6.214;2024-03-22T09:21:25;27.02;;;14.98;;
54937;SDS011;52756;52.826;6.214;2024-03-22T09:23:50;21.95;;;14.45;;
54937;SDS011;52756;52.826;6.214;2024-03-22T09:26:16;24.55;;;15.32;;
54937;SDS011;52756;52.826;6.214;2024-03-22T09:28:41;25.30;;;14.02;;
54937;SDS011;52756;52.826;6.214;2024-03-22T09:31:07;30.38;;;18.25;;
54937;SDS011;52756;52.826;6.214;2024-03-22T09:33:36;26.63;;;17.90;;
54937;SDS011;52756;52.826;6.214;2024-03-22T09:36:02;27.10;;;16.65;;
54937;SDS011;52756;52.826;6.214;2024-03-22T09:38:28;24.42;;;15.60;;
54937;SDS011;52756;52.826;6.214;2024-03-22T09:40:54;26.50;;;17.02;;
54937;SDS011;52756;52.826;6.214;2024-03-22T09:43:23;28.38;;;17.85;;
54937;SDS011;52756;52.826;6.214;2024-03-22T09:45:51;31.83;;;18.20;;
54937;SDS011;52756;52.826;6.214;2024-03-22T09:48:20;27.48;;;17.63;;
54937;SDS011;52756;52.826;6.214;2024-03-22T09:50:48;26.00;;;17.33;;
54937;SDS011;52756;52.826;6.214;2024-03-22T09:53:20;31.15;;;20.20;;
54937;SDS011;52756;52.826;6.214;2024-03-22T09:55:47;30.42;;;18.73;;
54937;SDS011;52756;52.826;6.214;2024-03-22T09:58:14;23.42;;;15.48;;
54937;SDS011;52756;52.826;6.214;2024-03-22T10:00:41;22.67;;;15.77;;
54937;SDS011;52756;52.826;6.214;2024-03-22T10:03:07;22.63;;;14.70;;
54937;SDS011;52756;52.826;6.214;2024-03-22T10:05:34;24.92;;;15.07;;
54937;SDS011;52756;52.826;6.214;2024-03-22T10:08:00;19.00;;;12.65;;
54937;SDS011;52756;52.826;6.214;2024-03-22T10:10:26;21.52;;;13.20;;
54937;SDS011;52756;52.826;6.214;2024-03-22T10:12:52;18.95;;;12.68;;
54937;SDS011;52756;52.826;6.214;2024-03-22T10:15:20;18.20;;;11.27;;
54937;SDS011;52756;52.826;6.214;2024-03-22T10:17:48;16.08;;;10.57;;
54937;SDS011;52756;52.826;6.214;2024-03-22T10:20:14;16.30;;;11.30;;
54937;SDS011;52756;52.826;6.214;2024-03-22T10:22:43;13.82;;;10.05;;
54937;SDS011;52756;52.826;6.214;2024-03-22T10:25:23;14.27;;;10.10;;
54937;SDS011;52756;52.826;6.214;2024-03-22T10:27:49;13.50;;;8.88;;
54937;SDS011;52756;52.826;6.214;2024-03-22T10:30:15;12.85;;;9.55;;
54937;SDS011;52756;52.826;6.214;2024-03-22T10:32:42;13.68;;;9.50;;
54937;SDS011;52756;52.826;6.214;2024-03-22T10:35:11;11.80;;;8.15;;
54937;SDS011;52756;52.826;6.214;2024-03-22T10:37:38;11.73;;;8.57;;
54937;SDS011;52756;52.826;6.214;2024-03-22T10:40:04;11.18;;;7.90;;
54937;SDS011;52756;52.826;6.214;2024-03-22T10:42:37;11.35;;;8.00;;
54937;SDS011;52756;52.826;6.214;2024-03-22T10:45:04;10.77;;;7.43;;
54937;SDS011;52756;52.826;6.214;2024-03-22T10:47:31;10.90;;;7.63;;
54937;SDS011;52756;52.826;6.214;2024-03-22T10:50:01;11.60;;;7.45;;
54937;SDS011;52756;52.826;6.214;2024-03-22T10:52:54;8.48;;;6.97;;
54937;SDS011;52756;52.826;6.214;2024-03-22T10:55:26;10.40;;;6.85;;
54937;SDS011;52756;52.826;6.214;2024-03-22T10:58:03;10.35;;;7.28;;
54937;SDS011;52756;52.826;6.214;2024-03-22T11:00:29;12.18;;;6.78;;
54937;SDS011;52756;52.826;6.214;2024-03-22T11:02:56;7.85;;;5.40;;
54937;SDS011;52756;52.826;6.214;2024-03-22T11:05:22;9.73;;;6.47;;
54937;SDS011;52756;52.826;6.214;2024-03-22T11:07:58;8.27;;;6.07;;
54937;SDS011;52756;52.826;6.214;2024-03-22T11:10:33;11.02;;;6.82;;
54937;SDS011;52756;52.826;6.214;2024-03-22T11:13:02;10.07;;;7.13;;
54937;SDS011;52756;52.826;6.214;2024-03-22T11:15:32;9.70;;;5.70;;
54937;SDS011;52756;52.826;6.214;2024-03-22T11:17:59;12.75;;;6.00;;
54937;SDS011;52756;52.826;6.214;2024-03-22T11:20:25;8.50;;;6.05;;
54937;SDS011;52756;52.826;6.214;2024-03-22T11:22:52;8.70;;;6.32;;
54937;SDS011;52756;52.826;6.214;2024-03-22T11:25:18;7.18;;;5.65;;
54937;SDS011;52756;52.826;6.214;2024-03-22T11:27:44;7.20;;;4.90;;
54937;SDS011;52756;52.826;6.214;2024-03-22T11:30:15;8.65;;;5.22;;
54937;SDS011;52756;52.826;6.214;2024-03-22T11:32:40;6.88;;;4.70;;
54937;SDS011;52756;52.826;6.214;2024-03-22T11:35:10;7.40;;;4.80;;
54937;SDS011;52756;52.826;6.214;2024-03-22T11:37:40;7.45;;;4.75;;
54937;SDS011;52756;52.826;6.214;2024-03-22T11:40:08;6.63;;;4.35;;
54937;SDS011;52756;52.826;6.214;2024-03-22T11:42:35;6.55;;;4.57;;
54937;SDS011;52756;52.826;6.214;2024-03-22T11:45:02;8.50;;;4.97;;
54937;SDS011;52756;52.826;6.214;2024-03-22T11:47:29;5.75;;;3.92;;
54937;SDS011;52756;52.826;6.214;2024-03-22T11:49:55;5.28;;;3.88;;
54937;SDS011;52756;52.826;6.214;2024-03-22T11:52:24;5.88;;;3.35;;
54937;SDS011;52756;52.826;6.214;2024-03-22T11:54:53;4.93;;;3.15;;
54937;SDS011;52756;52.826;6.214;2024-03-22T11:57:22;5.32;;;3.10;;
54937;SDS011;52756;52.826;6.214;2024-03-22T11:59:48;5.97;;;3.22;;
54937;SDS011;52756;52.826;6.214;2024-03-22T12:02:15;4.90;;;3.55;;
54937;SDS011;52756;52.826;6.214;2024-03-22T12:04:47;6.10;;;2.50;;
54937;SDS011;52756;52.826;6.214;2024-03-22T12:07:13;6.22;;;2.17;;
54937;SDS011;52756;52.826;6.214;2024-03-22T12:09:41;4.90;;;2.90;;
54937;SDS011;52756;52.826;6.214;2024-03-22T12:12:09;5.60;;;2.42;;
54937;SDS011;52756;52.826;6.214;2024-03-22T12:14:36;5.38;;;2.30;;
54937;SDS011;52756;52.826;6.214;2024-03-22T12:17:03;6.70;;;3.03;;
54937;SDS011;52756;52.826;6.214;2024-03-22T12:19:29;5.00;;;2.33;;
54937;SDS011;52756;52.826;6.214;2024-03-22T12:21:58;7.18;;;2.20;;
54937;SDS011;52756;52.826;6.214;2024-03-22T12:24:25;7.97;;;2.90;;
54937;SDS011;52756;52.826;6.214;2024-03-22T12:26:52;10.98;;;3.08;;
54937;SDS011;52756;52.826;6.214;2024-03-22T12:29:19;5.32;;;2.65;;
54937;SDS011;52756;52.826;6.214;2024-03-22T12:31:45;7.80;;;3.25;;
54937;SDS011;52756;52.826;6.214;2024-03-22T12:34:13;5.60;;;2.60;;
54937;SDS011;52756;52.826;6.214;2024-03-22T12:36:38;8.90;;;3.17;;
54937;SDS011;52756;52.826;6.214;2024-03-22T12:39:04;7.25;;;2.70;;
54937;SDS011;52756;52.826;6.214;2024-03-22T12:41:30;6.68;;;2.42;;
54937;SDS011;52756;52.826;6.214;2024-03-22T12:43:56;7.90;;;2.90;;
54937;SDS011;52756;52.826;6.214;2024-03-22T12:46:22;7.63;;;3.33;;
54937;SDS011;52756;52.826;6.214;2024-03-22T12:48:48;9.30;;;3.45;;
54937;SDS011;52756;52.826;6.214;2024-03-22T12:51:14;10.93;;;3.33;;
54937;SDS011;52756;52.826;6.214;2024-03-22T12:53:40;10.48;;;3.70;;
54937;SDS011;52756;52.826;6.214;2024-03-22T12:56:06;11.70;;;3.70;;
54937;SDS011;52756;52.826;6.214;2024-03-22T12:58:33;9.63;;;3.90;;
54937;SDS011;52756;52.826;6.214;2024-03-22T13:00:59;11.80;;;4.10;;
54937;SDS011;52756;52.826;6.214;2024-03-22T13:03:26;8.70;;;4.00;;
54937;SDS011;52756;52.826;6.214;2024-03-22T13:05:52;7.80;;;3.97;;
54937;SDS011;52756;52.826;6.214;2024-03-22T13:08:18;11.15;;;4.60;;
54937;SDS011;52756;52.826;6.214;2024-03-22T13:10:44;8.68;;;4.10;;
54937;SDS011;52756;52.826;6.214;2024-03-22T13:13:13;11.13;;;4.45;;
54937;SDS011;52756;52.826;6.214;2024-03-22T13:15:42;9.38;;;4.13;;
54937;SDS011;52756;52.826;6.214;2024-03-22T13:18:08;11.00;;;5.20;;
54937;SDS011;52756;52.826;6.214;2024-03-22T13:20:37;7.25;;;3.60;;
54937;SDS011;52756;52.826;6.214;2024-03-22T13:23:03;12.45;;;4.95;;
54937;SDS011;52756;52.826;6.214;2024-03-22T13:25:29;9.00;;;4.50;;
54937;SDS011;52756;52.826;6.214;2024-03-22T13:27:54;9.23;;;4.53;;
54937;SDS011;52756;52.826;6.214;2024-03-22T13:30:20;9.57;;;4.55;;
54937;SDS011;52756;52.826;6.214;2024-03-22T13:32:46;8.43;;;4.28;;
54937;SDS011;52756;52.826;6.214;2024-03-22T13:35:12;8.60;;;4.22;;
54937;SDS011;52756;52.826;6.214;2024-03-22T13:37:39;11.95;;;5.60;;
54937;SDS011;52756;52.826;6.214;2024-03-22T13:40:06;8.40;;;4.18;;
54937;SDS011;52756;52.826;6.214;2024-03-22T13:42:32;12.07;;;5.63;;
54937;SDS011;52756;52.826;6.214;2024-03-22T13:44:57;11.90;;;6.18;;
54937;SDS011;52756;52.826;6.214;2024-03-22T13:47:23;12.13;;;6.25;;
54937;SDS011;52756;52.826;6.214;2024-03-22T13:49:49;15.27;;;7.35;;
54937;SDS011;52756;52.826;6.214;2024-03-22T13:52:15;16.65;;;6.53;;
54937;SDS011;52756;52.826;6.214;2024-03-22T13:54:41;19.73;;;7.30;;
54937;SDS011;52756;52.826;6.214;2024-03-22T13:57:06;17.63;;;7.10;;
54937;SDS011;52756;52.826;6.214;2024-03-22T13:59:32;13.70;;;6.18;;
54937;SDS011;52756;52.826;6.214;2024-03-22T14:01:58;15.63;;;6.93;;
54937;SDS011;52756;52.826;6.214;2024-03-22T14:04:25;17.15;;;6.90;;
54937;SDS011;52756;52.826;6.214;2024-03-22T14:06:51;19.25;;;6.93;;
54937;SDS011;52756;52.826;6.214;2024-03-22T14:09:17;14.55;;;6.32;;
54937;SDS011;52756;52.826;6.214;2024-03-22T14:11:43;17.60;;;6.75;;
54937;SDS011;52756;52.826;6.214;2024-03-22T14:14:10;16.35;;;6.88;;
54937;SDS011;52756;52.826;6.214;2024-03-22T14:16:37;17.88;;;6.35;;
54937;SDS011;52756;52.826;6.214;2024-03-22T14:19:03;14.88;;;6.63;;
54937;SDS011;52756;52.826;6.214;2024-03-22T14:21:28;14.30;;;6.30;;
54937;SDS011;52756;52.826;6.214;2024-03-22T14:23:54;19.30;;;6.07;;
54937;SDS011;52756;52.826;6.214;2024-03-22T14:26:20;13.90;;;5.72;;
54937;SDS011;52756;52.826;6.214;2024-03-22T14:28:48;18.75;;;5.85;;